EDLW/DTM METAR and TAF weather

Enter ICAO airport designator
Station Type Date Time Source
EDLW METAR 2018/07/21 13:20 UTC NOAA

EDLW 211320Z VRB04KT CAVOK 28/13 Q1011


Station Type Date Time Source
EDLW Decoded METAR 2018/07/21 13:20 UTC NOAA

Dortmund / Wickede, Germany (EDLW) 51-31N 007-37E
Jul 21, 2018 - 09:20 AM EDT / 2018.07.21 1320 UTC
Wind: Variable at 5 MPH (4 KT):0
Visibility: greater than 7 mile(s):0
Temperature: 82 F (28 C)
Dew Point: 55 F (13 C)
Relative Humidity: 39%
Pressure (altimeter): 29.85 in. Hg (1011 hPa)
ob: EDLW 211320Z VRB04KT CAVOK 28/13 Q1011
cycle: 13

Station Type Date Time Source
EDLW TAF 2018/07/21 12:27 UTC NOAA

TAF EDLW 211100Z 2112/2212 29005KT CAVOK PROB30
TEMPO 2113/2119 19015G25KT TSRA BKN040CB
BECMG 2119/2121 23005KT
BECMG 2207/2210 29007KT


Example: see airport list